Time;durP1;ratioP1;P1;durP2;ratioP2;P2;SDS_P1;SDS_P2;PMS_P1;PMS_P2;Temp;Humidity;BMP_temperature;BMP_pressure;BME280_temperature;BME280_humidity;BME280_pressure;Samples;Min_cycle;Max_cycle;Signal;HPM_P1;HPM_P2
2020/12/21 00:01:09;;;;;;;;;;;19.50;39.20;;;;;;491620;240;1045;-53
2020/12/21 00:03:10;;;;;;;;;;;19.50;39.20;;;;;;491806;240;2176;-53
2020/12/21 00:05:11;;;;;;;;;;;19.50;39.30;;;;;;491673;240;1026;-53
2020/12/21 00:07:13;;;;;;;;;;;19.40;39.30;;;;;;491609;240;1216;-53
2020/12/21 00:09:14;;;;;;;;;;;19.40;39.40;;;;;;491612;240;1049;-53
2020/12/21 00:11:15;;;;;;;;;;;19.40;39.40;;;;;;491653;240;1066;-53
2020/12/21 00:13:18;;;;;;;;;;;19.40;39.50;;;;;;491924;240;1134;-53
2020/12/21 00:15:19;;;;;;;;;;;19.30;39.50;;;;;;491641;240;1028;-52
2020/12/21 00:17:20;;;;;;;;;;;19.30;39.60;;;;;;491644;240;2679;-53
2020/12/21 00:19:21;;;;;;;;;;;19.20;38.30;;;;;;491717;240;1219;-53
2020/12/21 00:21:23;;;;;;;;;;;19.20;39.70;;;;;;491669;240;1343;-53
2020/12/21 00:23:24;;;;;;;;;;;19.20;39.70;;;;;;491617;240;2165;-53
2020/12/21 00:25:25;;;;;;;;;;;19.10;38.40;;;;;;491738;240;1050;-53
2020/12/21 00:27:26;;;;;;;;;;;19.20;39.80;;;;;;491601;240;1160;-53
2020/12/21 00:29:28;;;;;;;;;;;19.10;39.80;;;;;;491681;240;1207;-53
2020/12/21 00:31:29;;;;;;;;;;;19.10;39.90;;;;;;491837;240;1069;-53
2020/12/21 00:33:30;;;;;;;;;;;19.10;39.90;;;;;;491702;240;1050;-53
2020/12/21 00:35:32;;;;;;;;;;;19.00;39.90;;;;;;491784;240;1008;-52
2020/12/21 00:37:33;;;;;;;;;;;19.00;39.90;;;;;;491718;240;1308;-53
2020/12/21 00:39:34;;;;;;;;;;;19.00;40.00;;;;;;491856;240;1056;-53
2020/12/21 00:41:35;;;;;;;;;;;19.00;40.00;;;;;;491707;240;1065;-53
2020/12/21 00:43:37;;;;;;;;;;;19.00;40.10;;;;;;491604;240;2183;-53
2020/12/21 00:45:38;;;;;;;;;;;18.90;40.10;;;;;;491654;240;1057;-53
2020/12/21 00:47:43;;;;;;;;;;;18.90;40.10;;;;;;491834;240;1208;-53
2020/12/21 00:49:41;;;;;;;;;;;18.90;40.10;;;;;;491581;241;2161;-52
2020/12/21 00:51:42;;;;;;;;;;;18.90;40.20;;;;;;491595;240;1042;-53
2020/12/21 00:53:43;;;;;;;;;;;18.90;40.20;;;;;;491650;240;1258;-53
2020/12/21 00:55:44;;;;;;;;;;;18.80;40.20;;;;;;491947;240;1081;-53
2020/12/21 00:57:46;;;;;;;;;;;18.80;40.20;;;;;;491674;240;1045;-54
2020/12/21 00:59:47;;;;;;;;;;;18.80;40.30;;;;;;491973;240;1084;-53
2020/12/21 01:01:48;;;;;;;;;;;18.80;40.30;;;;;;491699;240;993;-53
2020/12/21 01:03:49;;;;;;;;;;;18.80;40.30;;;;;;491609;240;2145;-53
2020/12/21 01:05:51;;;;;;;;;;;18.80;40.30;;;;;;491695;240;1037;-53
2020/12/21 01:07:52;;;;;;;;;;;18.80;40.40;;;;;;491774;240;1182;-53
2020/12/21 01:09:54;;;;;;;;;;;18.70;40.30;;;;;;491585;240;1029;-52
2020/12/21 01:11:55;;;;;;;;;;;18.70;40.40;;;;;;491634;240;1229;-53
2020/12/21 01:13:56;;;;;;;;;;;18.70;40.40;;;;;;491663;240;1119;-53
2020/12/21 01:15:57;;;;;;;;;;;18.70;40.40;;;;;;491630;240;964;-53
2020/12/21 01:17:59;;;;;;;;;;;18.70;40.40;;;;;;491823;240;1198;-53
2020/12/21 01:20:00;;;;;;;;;;;18.70;40.40;;;;;;491842;240;972;-53
2020/12/21 01:22:01;;;;;;;;;;;18.70;40.50;;;;;;491552;240;1177;-53
2020/12/21 01:24:02;;;;;;;;;;;18.60;40.40;;;;;;491576;240;2164;-53
2020/12/21 01:26:04;;;;;;;;;;;18.60;40.50;;;;;;491643;240;999;-53
2020/12/21 01:28:05;;;;;;;;;;;18.60;40.50;;;;;;491639;240;985;-53
2020/12/21 01:30:06;;;;;;;;;;;18.60;40.50;;;;;;491606;240;1003;-53
2020/12/21 01:32:07;;;;;;;;;;;18.60;40.50;;;;;;491792;240;1037;-53
2020/12/21 01:34:09;;;;;;;;;;;18.60;40.50;;;;;;491614;240;1077;-53
2020/12/21 01:36:10;;;;;;;;;;;18.60;40.50;;;;;;491645;240;2722;-53
2020/12/21 01:38:11;;;;;;;;;;;18.60;40.50;;;;;;491661;240;1107;-53
2020/12/21 01:40:13;;;;;;;;;;;18.60;40.60;;;;;;491661;240;1056;-53
2020/12/21 01:42:14;;;;;;;;;;;18.50;40.50;;;;;;491787;240;1207;-52
2020/12/21 01:44:15;;;;;;;;;;;18.50;40.50;;;;;;491788;240;2148;-53
2020/12/21 01:46:16;;;;;;;;;;;18.50;40.50;;;;;;491642;240;1035;-53
2020/12/21 01:48:18;;;;;;;;;;;18.50;40.60;;;;;;491627;240;1212;-53
2020/12/21 01:50:19;;;;;;;;;;;18.50;40.60;;;;;;491570;240;1113;-53
2020/12/21 01:52:20;;;;;;;;;;;18.50;40.60;;;;;;491591;240;1411;-53
2020/12/21 01:54:22;;;;;;;;;;;18.50;40.60;;;;;;491627;240;1171;-53
2020/12/21 01:56:23;;;;;;;;;;;18.50;40.60;;;;;;491673;240;1156;-53
2020/12/21 01:58:25;;;;;;;;;;;18.50;40.60;;;;;;491607;240;1383;-53
2020/12/21 02:00:29;;;;;;;;;;;18.40;40.60;;;;;;491696;240;1209;-53
2020/12/21 02:02:27;;;;;;;;;;;18.40;40.60;;;;;;491586;242;1776;-53
2020/12/21 02:04:28;;;;;;;;;;;18.50;40.70;;;;;;491550;240;2176;-52
2020/12/21 02:06:30;;;;;;;;;;;18.40;40.60;;;;;;491762;240;1159;-53
2020/12/21 02:08:31;;;;;;;;;;;18.40;40.60;;;;;;491584;240;1294;-53
2020/12/21 02:10:32;;;;;;;;;;;18.40;40.60;;;;;;491683;240;1154;-53
2020/12/21 02:12:34;;;;;;;;;;;18.40;40.60;;;;;;491686;240;1124;-53
2020/12/21 02:14:35;;;;;;;;;;;18.40;40.70;;;;;;491647;240;1070;-53
2020/12/21 02:16:36;;;;;;;;;;;18.40;40.70;;;;;;491933;240;1054;-53
2020/12/21 02:18:37;;;;;;;;;;;18.40;40.70;;;;;;491646;240;947;-53
2020/12/21 02:20:39;;;;;;;;;;;18.40;40.70;;;;;;492102;240;1052;-53
2020/12/21 02:22:40;;;;;;;;;;;18.40;40.70;;;;;;491905;240;1045;-52
2020/12/21 02:24:41;;;;;;;;;;;18.40;40.70;;;;;;491664;240;2160;-53
2020/12/21 02:26:42;;;;;;;;;;;18.40;40.70;;;;;;491824;240;1051;-53
2020/12/21 02:28:44;;;;;;;;;;;18.40;40.70;;;;;;491652;240;1196;-53
2020/12/21 02:30:45;;;;;;;;;;;18.30;40.60;;;;;;491616;240;1073;-53
2020/12/21 02:32:46;;;;;;;;;;;18.30;40.60;;;;;;491605;240;966;-53
2020/12/21 02:34:47;;;;;;;;;;;18.30;40.70;;;;;;491729;240;1001;-53
2020/12/21 02:36:49;;;;;;;;;;;18.30;40.60;;;;;;491645;240;1219;-53
2020/12/21 02:38:50;;;;;;;;;;;18.30;40.60;;;;;;491678;240;1151;-52
2020/12/21 02:40:51;;;;;;;;;;;18.30;40.60;;;;;;492124;240;992;-53
2020/12/21 02:42:53;;;;;;;;;;;18.30;40.60;;;;;;491634;240;1397;-53
2020/12/21 02:44:54;;;;;;;;;;;18.30;40.70;;;;;;491701;240;2191;-53
2020/12/21 02:46:55;;;;;;;;;;;18.30;40.70;;;;;;491675;240;1273;-53
2020/12/21 02:48:56;;;;;;;;;;;18.30;40.70;;;;;;491691;240;945;-53
2020/12/21 02:50:58;;;;;;;;;;;18.30;40.70;;;;;;491698;240;1191;-53
2020/12/21 02:52:59;;;;;;;;;;;18.30;40.70;;;;;;491603;240;1124;-53
2020/12/21 02:55:00;;;;;;;;;;;18.30;40.70;;;;;;491666;240;1193;-53
2020/12/21 02:57:02;;;;;;;;;;;18.30;40.70;;;;;;491596;240;1185;-53
2020/12/21 02:59:03;;;;;;;;;;;18.30;40.60;;;;;;491760;240;1067;-53
2020/12/21 03:01:04;;;;;;;;;;;18.30;40.50;;;;;;491679;240;1219;-53
2020/12/21 03:03:05;;;;;;;;;;;18.40;40.50;;;;;;491808;240;1052;-53
2020/12/21 03:05:07;;;;;;;;;;;18.40;40.50;;;;;;491578;240;2196;-53
2020/12/21 03:07:08;;;;;;;;;;;18.40;40.40;;;;;;491696;240;1154;-53
2020/12/21 03:09:09;;;;;;;;;;;18.40;40.40;;;;;;491646;240;1252;-53
2020/12/21 03:11:11;;;;;;;;;;;18.40;40.30;;;;;;491654;240;1095;-53
2020/12/21 03:13:12;;;;;;;;;;;18.50;40.30;;;;;;491870;240;1028;-53
2020/12/21 03:15:13;;;;;;;;;;;18.50;40.30;;;;;;491644;240;1208;-53
2020/12/21 03:17:14;;;;;;;;;;;18.50;40.30;;;;;;491717;240;1040;-53
2020/12/21 03:19:16;;;;;;;;;;;18.50;40.20;;;;;;491605;240;1063;-53
2020/12/21 03:21:17;;;;;;;;;;;18.50;40.20;;;;;;491632;240;1030;-53
2020/12/21 03:23:18;;;;;;;;;;;18.60;40.20;;;;;;491704;240;1100;-53
2020/12/21 03:25:19;;;;;;;;;;;18.60;40.20;;;;;;491679;240;2183;-53
2020/12/21 03:27:21;;;;;;;;;;;18.60;40.10;;;;;;491677;240;1048;-53
2020/12/21 03:29:22;;;;;;;;;;;18.60;40.10;;;;;;491727;240;1110;-53
2020/12/21 03:31:24;;;;;;;;;;;18.60;40.00;;;;;;491724;240;1222;-53
2020/12/21 03:33:25;;;;;;;;;;;18.70;40.00;;;;;;491687;240;1036;-53
2020/12/21 03:35:26;;;;;;;;;;;18.70;40.00;;;;;;491551;240;1353;-53
2020/12/21 03:37:32;;;;;;;;;;;18.70;40.00;;;;;;491685;240;1155;-53
2020/12/21 03:39:29;;;;;;;;;;;18.70;39.90;;;;;;491774;241;2066;-53
2020/12/21 03:41:30;;;;;;;;;;;18.70;39.90;;;;;;491698;240;1308;-53
2020/12/21 03:43:31;;;;;;;;;;;18.80;39.90;;;;;;491628;240;1076;-54
2020/12/21 03:45:33;;;;;;;;;;;18.80;39.80;;;;;;491677;240;2183;-53
2020/12/21 03:47:34;;;;;;;;;;;18.80;39.80;;;;;;491680;240;1221;-53
2020/12/21 03:49:35;;;;;;;;;;;18.80;39.80;;;;;;491619;240;1086;-53
2020/12/21 03:51:36;;;;;;;;;;;18.80;39.80;;;;;;491670;240;1241;-53
2020/12/21 03:53:38;;;;;;;;;;;18.80;39.70;;;;;;491729;240;942;-53
2020/12/21 03:55:39;;;;;;;;;;;18.90;39.70;;;;;;491628;240;1237;-52
2020/12/21 03:57:40;;;;;;;;;;;18.90;39.70;;;;;;491662;240;1029;-53
2020/12/21 03:59:42;;;;;;;;;;;18.90;39.70;;;;;;491793;240;1306;-53
2020/12/21 04:01:43;;;;;;;;;;;18.90;39.60;;;;;;491656;240;1037;-53
2020/12/21 04:03:44;;;;;;;;;;;18.90;39.60;;;;;;491613;240;1050;-53
2020/12/21 04:05:46;;;;;;;;;;;18.90;39.60;;;;;;491697;240;2200;-53
2020/12/21 04:07:47;;;;;;;;;;;18.90;39.60;;;;;;491669;240;1076;-53
2020/12/21 04:09:48;;;;;;;;;;;18.90;39.50;;;;;;491716;240;1265;-53
2020/12/21 04:11:49;;;;;;;;;;;19.00;39.60;;;;;;491568;240;1035;-53
2020/12/21 04:13:51;;;;;;;;;;;19.00;39.50;;;;;;491858;240;1039;-53
2020/12/21 04:15:52;;;;;;;;;;;19.00;39.50;;;;;;491627;240;1044;-53
2020/12/21 04:17:54;;;;;;;;;;;19.00;38.20;;;;;;491752;240;1037;-53
2020/12/21 04:19:55;;;;;;;;;;;19.00;39.50;;;;;;491734;240;979;-53
2020/12/21 04:21:56;;;;;;;;;;;19.00;39.50;;;;;;491696;240;1070;-53
2020/12/21 04:23:58;;;;;;;;;;;19.00;39.40;;;;;;491701;240;944;-53
2020/12/21 04:25:59;;;;;;;;;;;19.10;39.50;;;;;;491659;239;2160;-53
2020/12/21 04:28:00;;;;;;;;;;;19.10;39.40;;;;;;491585;240;2180;-53
2020/12/21 04:30:01;;;;;;;;;;;19.10;38.10;;;;;;491754;240;1050;-53
2020/12/21 04:32:03;;;;;;;;;;;19.10;39.40;;;;;;491714;240;1073;-53
2020/12/21 04:34:04;;;;;;;;;;;19.10;39.40;;;;;;491697;240;1079;-53
2020/12/21 04:36:05;;;;;;;;;;;19.10;39.40;;;;;;491726;240;971;-53
2020/12/21 04:38:07;;;;;;;;;;;19.10;39.30;;;;;;491573;240;1096;-53
2020/12/21 04:40:08;;;;;;;;;;;19.10;39.30;;;;;;491579;240;1132;-53
2020/12/21 04:42:09;;;;;;;;;;;19.20;39.30;;;;;;491623;240;1051;-53
2020/12/21 04:44:10;;;;;;;;;;;19.10;39.30;;;;;;491637;240;939;-53
2020/12/21 04:46:12;;;;;;;;;;;19.20;39.30;;;;;;491671;240;2136;-53
2020/12/21 04:48:13;;;;;;;;;;;19.20;39.30;;;;;;491731;240;1147;-53
2020/12/21 04:50:14;;;;;;;;;;;19.20;39.20;;;;;;491977;240;1041;-53
2020/12/21 04:52:16;;;;;;;;;;;19.20;39.20;;;;;;491615;240;974;-54
2020/12/21 04:54:17;;;;;;;;;;;19.20;39.30;;;;;;491634;240;964;-53
2020/12/21 04:56:18;;;;;;;;;;;19.20;39.20;;;;;;491652;240;1155;-52
2020/12/21 04:58:19;;;;;;;;;;;19.20;39.20;;;;;;491638;240;1035;-53
2020/12/21 05:00:21;;;;;;;;;;;19.30;39.20;;;;;;491670;240;1086;-53
2020/12/21 05:02:22;;;;;;;;;;;19.30;39.20;;;;;;491951;240;951;-53
2020/12/21 05:04:24;;;;;;;;;;;19.30;39.20;;;;;;491586;240;1044;-53
2020/12/21 05:06:25;;;;;;;;;;;19.30;39.20;;;;;;491577;240;2125;-53
2020/12/21 05:08:26;;;;;;;;;;;19.30;39.20;;;;;;491648;240;1039;-53
2020/12/21 05:10:27;;;;;;;;;;;19.30;39.10;;;;;;491761;240;1145;-53
2020/12/21 05:12:29;;;;;;;;;;;19.30;39.10;;;;;;491561;240;1189;-53
2020/12/21 05:14:30;;;;;;;;;;;19.30;39.10;;;;;;491625;240;1060;-53
2020/12/21 05:16:31;;;;;;;;;;;19.30;39.10;;;;;;491590;240;1035;-53
2020/12/21 05:18:34;;;;;;;;;;;19.30;39.10;;;;;;491649;240;1044;-53
2020/12/21 05:20:34;;;;;;;;;;;19.30;39.10;;;;;;491763;240;1850;-53
2020/12/21 05:22:35;;;;;;;;;;;19.40;39.10;;;;;;491654;240;1054;-53
2020/12/21 05:24:36;;;;;;;;;;;19.40;39.10;;;;;;491631;240;1076;-53
2020/12/21 05:26:38;;;;;;;;;;;19.40;39.10;;;;;;491582;240;2164;-53
2020/12/21 05:28:39;;;;;;;;;;;19.40;39.10;;;;;;491604;240;1191;-53
2020/12/21 05:30:40;;;;;;;;;;;19.40;39.00;;;;;;491620;240;1036;-53
2020/12/21 05:32:42;;;;;;;;;;;19.40;37.70;;;;;;491880;240;1022;-53
2020/12/21 05:34:43;;;;;;;;;;;19.40;39.10;;;;;;491720;240;1042;-53
2020/12/21 05:36:44;;;;;;;;;;;19.40;39.00;;;;;;491570;240;960;-53
2020/12/21 05:38:46;;;;;;;;;;;19.40;39.00;;;;;;491583;240;1055;-53
2020/12/21 05:40:46;;;;;;;;;;;19.40;39.00;;;;;;491412;242;1598;-53
2020/12/21 05:42:48;;;;;;;;;;;19.50;39.00;;;;;;491454;240;1257;-53
2020/12/21 05:44:49;;;;;;;;;;;19.50;39.00;;;;;;491472;240;1073;-53
2020/12/21 05:46:51;;;;;;;;;;;19.50;39.00;;;;;;491506;240;2122;-53
2020/12/21 05:48:52;;;;;;;;;;;19.50;38.90;;;;;;491582;240;963;-53
2020/12/21 05:50:53;;;;;;;;;;;19.50;39.00;;;;;;491564;240;1046;-54
2020/12/21 05:52:55;;;;;;;;;;;19.50;38.90;;;;;;491573;240;966;-53
2020/12/21 05:54:56;;;;;;;;;;;19.50;38.90;;;;;;491623;240;969;-53
2020/12/21 05:56:57;;;;;;;;;;;19.50;38.90;;;;;;491523;240;1155;-52
2020/12/21 05:58:58;;;;;;;;;;;19.50;38.90;;;;;;491606;240;1057;-53
2020/12/21 06:01:00;;;;;;;;;;;19.50;38.90;;;;;;491572;240;1409;-54
2020/12/21 06:03:01;;;;;;;;;;;19.50;38.90;;;;;;491536;240;1088;-53
2020/12/21 06:05:02;;;;;;;;;;;19.50;38.80;;;;;;491631;240;1045;-54
2020/12/21 06:07:04;;;;;;;;;;;19.50;38.80;;;;;;491516;240;2228;-53
2020/12/21 06:09:05;;;;;;;;;;;19.60;38.90;;;;;;491556;240;1026;-53
2020/12/21 06:11:06;;;;;;;;;;;19.60;38.90;;;;;;491633;240;1105;-53
2020/12/21 06:13:07;;;;;;;;;;;19.60;38.90;;;;;;491495;240;1181;-53
2020/12/21 06:15:09;;;;;;;;;;;19.60;38.80;;;;;;491507;240;1052;-53
2020/12/21 06:17:10;;;;;;;;;;;19.60;38.90;;;;;;491512;240;1115;-53
2020/12/21 06:19:11;;;;;;;;;;;19.60;38.80;;;;;;491525;240;1214;-53
2020/12/21 06:21:12;;;;;;;;;;;19.60;38.80;;;;;;491481;240;1028;-53
2020/12/21 06:23:14;;;;;;;;;;;19.60;38.80;;;;;;491565;240;1093;-53
2020/12/21 06:25:15;;;;;;;;;;;19.60;38.80;;;;;;491463;240;2124;-53
2020/12/21 06:27:16;;;;;;;;;;;19.60;38.80;;;;;;491508;240;1154;-53
2020/12/21 06:29:17;;;;;;;;;;;19.60;38.70;;;;;;491458;240;1049;-53
2020/12/21 06:31:19;;;;;;;;;;;19.60;38.70;;;;;;491367;240;1062;-53
2020/12/21 06:33:20;;;;;;;;;;;19.60;38.70;;;;;;491413;240;1033;-53
2020/12/21 06:35:21;;;;;;;;;;;19.60;38.70;;;;;;491385;240;1163;-53
2020/12/21 06:37:23;;;;;;;;;;;19.70;38.80;;;;;;491448;240;1104;-53
2020/12/21 06:39:24;;;;;;;;;;;19.60;38.70;;;;;;491290;240;1056;-53
2020/12/21 06:41:25;;;;;;;;;;;19.70;38.80;;;;;;491220;240;1190;-53
2020/12/21 06:43:26;;;;;;;;;;;19.70;38.80;;;;;;491294;240;1112;-53
2020/12/21 06:45:28;;;;;;;;;;;19.70;38.70;;;;;;491313;240;2161;-53
2020/12/21 06:47:29;;;;;;;;;;;19.70;38.70;;;;;;491357;240;1177;-53
2020/12/21 06:49:30;;;;;;;;;;;19.70;38.70;;;;;;491336;240;1044;-52
2020/12/21 06:51:32;;;;;;;;;;;19.70;38.70;;;;;;491277;240;1157;-53
2020/12/21 06:53:33;;;;;;;;;;;19.70;38.60;;;;;;491420;240;1214;-53
2020/12/21 06:55:34;;;;;;;;;;;19.70;38.70;;;;;;491338;240;1188;-53
2020/12/21 06:57:36;;;;;;;;;;;19.70;38.60;;;;;;491414;240;1180;-53
2020/12/21 06:59:37;;;;;;;;;;;19.70;38.60;;;;;;491317;240;1026;-53
2020/12/21 07:01:38;;;;;;;;;;;19.70;38.60;;;;;;491228;240;1012;-53
2020/12/21 07:03:40;;;;;;;;;;;19.80;38.70;;;;;;491388;240;1036;-53
2020/12/21 07:05:41;;;;;;;;;;;19.70;38.60;;;;;;491323;240;2125;-53
2020/12/21 07:07:42;;;;;;;;;;;19.80;38.70;;;;;;491388;240;961;-53
2020/12/21 07:09:43;;;;;;;;;;;19.80;38.70;;;;;;491294;240;1056;-53
2020/12/21 07:11:45;;;;;;;;;;;19.80;38.70;;;;;;491375;239;1280;-53
2020/12/21 07:13:46;;;;;;;;;;;19.80;38.60;;;;;;491397;240;973;-53
2020/12/21 07:15:47;;;;;;;;;;;19.80;38.70;;;;;;491434;240;1015;-53
2020/12/21 07:17:49;;;;;;;;;;;19.80;38.70;;;;;;491415;240;979;-53
2020/12/21 07:19:50;;;;;;;;;;;19.80;38.70;;;;;;491419;240;1046;-53
2020/12/21 07:21:51;;;;;;;;;;;19.80;38.60;;;;;;491304;240;1118;-53
2020/12/21 07:23:52;;;;;;;;;;;19.80;38.60;;;;;;491319;240;1018;-53
2020/12/21 07:25:54;;;;;;;;;;;19.80;38.60;;;;;;491412;240;2136;-53
2020/12/21 07:27:55;;;;;;;;;;;19.80;38.60;;;;;;491433;240;1197;-53
2020/12/21 07:29:56;;;;;;;;;;;19.80;38.60;;;;;;491432;240;1040;-53
2020/12/21 07:31:58;;;;;;;;;;;19.80;38.60;;;;;;491375;240;1034;-53
2020/12/21 07:33:59;;;;;;;;;;;19.80;38.50;;;;;;491454;240;1052;-53
2020/12/21 07:36:00;;;;;;;;;;;19.80;38.60;;;;;;491434;240;1060;-53
2020/12/21 07:38:01;;;;;;;;;;;19.80;38.60;;;;;;491207;240;1065;-53
2020/12/21 07:40:03;;;;;;;;;;;19.80;38.50;;;;;;491094;240;1062;-53
2020/12/21 07:42:04;;;;;;;;;;;19.80;38.50;;;;;;491106;240;1204;-53
2020/12/21 07:44:05;;;;;;;;;;;19.80;38.50;;;;;;491222;242;1105;-53
2020/12/21 07:46:06;;;;;;;;;;;19.80;38.60;;;;;;491195;240;2185;-53
2020/12/21 07:48:08;;;;;;;;;;;19.90;38.80;;;;;;491316;240;1143;-53
2020/12/21 07:50:09;;;;;;;;;;;19.90;38.60;;;;;;491302;240;1051;-53
2020/12/21 07:52:10;;;;;;;;;;;20.00;38.40;;;;;;491251;240;1067;-53
2020/12/21 07:54:12;;;;;;;;;;;20.00;38.50;;;;;;491355;240;1045;-53
2020/12/21 07:56:13;;;;;;;;;;;19.90;38.50;;;;;;491344;240;1077;-53
2020/12/21 07:58:14;;;;;;;;;;;19.90;38.50;;;;;;491276;240;1330;-53
2020/12/21 08:00:16;;;;;;;;;;;19.90;38.70;;;;;;491309;240;1310;-53
2020/12/21 08:02:17;;;;;;;;;;;19.80;38.70;;;;;;491275;240;1084;-53
2020/12/21 08:04:18;;;;;;;;;;;19.80;38.80;;;;;;491365;240;1173;-53
2020/12/21 08:06:23;;;;;;;;;;;19.70;38.90;;;;;;491272;240;2125;-53
2020/12/21 08:08:23;;;;;;;;;;;19.70;38.90;;;;;;491219;242;1878;-53
2020/12/21 08:10:23;;;;;;;;;;;19.60;39.00;;;;;;491274;240;1929;-53
2020/12/21 08:12:24;;;;;;;;;;;19.60;39.10;;;;;;491306;240;1183;-53
2020/12/21 08:14:26;;;;;;;;;;;19.50;39.10;;;;;;491362;240;1034;-53
2020/12/21 08:16:28;;;;;;;;;;;19.50;39.20;;;;;;491322;240;1276;-53
2020/12/21 08:18:28;;;;;;;;;;;19.50;39.30;;;;;;491336;241;2352;-53
2020/12/21 08:20:30;;;;;;;;;;;19.40;39.30;;;;;;491327;240;1054;-53
2020/12/21 08:22:31;;;;;;;;;;;19.40;39.30;;;;;;491309;240;1219;-53
2020/12/21 08:24:32;;;;;;;;;;;19.40;39.40;;;;;;491248;240;1081;-52
2020/12/21 08:26:33;;;;;;;;;;;19.40;39.50;;;;;;491226;240;2184;-53
2020/12/21 08:28:35;;;;;;;;;;;19.30;38.20;;;;;;491205;240;1440;-53
2020/12/21 08:30:36;;;;;;;;;;;19.30;38.30;;;;;;491134;240;1228;-53
2020/12/21 08:32:37;;;;;;;;;;;19.20;38.30;;;;;;491182;240;1074;-52
2020/12/21 08:34:39;;;;;;;;;;;19.30;38.40;;;;;;491248;240;1104;-53
2020/12/21 08:36:40;;;;;;;;;;;19.20;39.60;;;;;;491115;240;1239;-53
2020/12/21 08:38:41;;;;;;;;;;;19.20;39.70;;;;;;491256;240;1034;-53
2020/12/21 08:40:43;;;;;;;;;;;19.20;39.70;;;;;;491267;240;1479;-53
2020/12/21 08:42:44;;;;;;;;;;;19.10;39.70;;;;;;491367;240;1224;-53
2020/12/21 08:44:45;;;;;;;;;;;19.10;39.80;;;;;;491354;240;1028;-53
2020/12/21 08:46:46;;;;;;;;;;;19.10;39.80;;;;;;491173;240;2185;-53
2020/12/21 08:48:48;;;;;;;;;;;19.10;39.80;;;;;;491219;240;1267;-53
2020/12/21 08:50:49;;;;;;;;;;;19.10;39.90;;;;;;491302;240;1546;-53
2020/12/21 08:52:50;;;;;;;;;;;19.10;39.90;;;;;;491304;240;1126;-53
2020/12/21 08:54:51;;;;;;;;;;;19.00;39.90;;;;;;491221;240;1133;-53
2020/12/21 08:56:53;;;;;;;;;;;19.00;39.90;;;;;;491184;240;1097;-53
2020/12/21 08:58:54;;;;;;;;;;;19.00;39.90;;;;;;491235;240;1186;-53
2020/12/21 09:00:55;;;;;;;;;;;19.00;40.00;;;;;;491245;240;1076;-53
2020/12/21 09:02:57;;;;;;;;;;;18.90;39.90;;;;;;491218;240;1076;-53
2020/12/21 09:04:59;;;;;;;;;;;18.90;40.00;;;;;;491160;240;1079;-53
2020/12/21 09:06:59;;;;;;;;;;;18.90;40.00;;;;;;491139;241;2137;-53
2020/12/21 09:09:00;;;;;;;;;;;18.90;38.80;;;;;;491224;240;1044;-53
2020/12/21 09:11:02;;;;;;;;;;;18.90;40.10;;;;;;491060;240;1073;-53
2020/12/21 09:13:03;;;;;;;;;;;18.90;40.10;;;;;;491226;240;1189;-53
2020/12/21 09:15:04;;;;;;;;;;;18.90;40.20;;;;;;491269;240;1215;-53
2020/12/21 09:17:05;;;;;;;;;;;18.90;40.20;;;;;;491265;240;1057;-53
2020/12/21 09:19:07;;;;;;;;;;;18.80;40.10;;;;;;491351;240;1339;-53
2020/12/21 09:21:08;;;;;;;;;;;18.80;40.10;;;;;;491274;240;1512;-53
2020/12/21 09:23:09;;;;;;;;;;;18.80;40.20;;;;;;491376;240;956;-53
2020/12/21 09:25:11;;;;;;;;;;;18.80;38.90;;;;;;491110;240;1236;-53
2020/12/21 09:27:12;;;;;;;;;;;18.80;40.20;;;;;;491138;240;2180;-53
2020/12/21 09:29:13;;;;;;;;;;;18.80;40.30;;;;;;491228;240;1209;-53
2020/12/21 09:31:14;;;;;;;;;;;18.80;40.30;;;;;;491260;240;1029;-53
2020/12/21 09:33:16;;;;;;;;;;;18.80;40.30;;;;;;491277;240;1075;-53
2020/12/21 09:35:17;;;;;;;;;;;18.70;40.30;;;;;;491296;240;1087;-53
2020/12/21 09:37:18;;;;;;;;;;;18.70;40.30;;;;;;491286;240;1079;-53
2020/12/21 09:39:20;;;;;;;;;;;18.70;40.40;;;;;;491326;240;1093;-53
2020/12/21 09:41:21;;;;;;;;;;;18.70;40.30;;;;;;491241;240;1052;-53
2020/12/21 09:43:22;;;;;;;;;;;18.70;40.30;;;;;;491196;240;1202;-53
2020/12/21 09:45:24;;;;;;;;;;;18.70;40.40;;;;;;491300;240;995;-53
2020/12/21 09:47:25;;;;;;;;;;;18.70;40.30;;;;;;491314;240;2128;-53
2020/12/21 09:49:26;;;;;;;;;;;18.70;40.30;;;;;;491024;240;1072;-53
2020/12/21 09:51:27;;;;;;;;;;;18.70;40.40;;;;;;491055;240;1253;-53
2020/12/21 09:53:29;;;;;;;;;;;18.70;40.40;;;;;;491194;240;1073;-53
2020/12/21 09:55:30;;;;;;;;;;;18.70;40.40;;;;;;491194;240;1049;-52
2020/12/21 09:57:31;;;;;;;;;;;18.70;40.30;;;;;;491211;240;1200;-53
2020/12/21 09:59:33;;;;;;;;;;;18.70;40.30;;;;;;491154;240;1239;-53
2020/12/21 10:01:34;;;;;;;;;;;18.70;40.30;;;;;;490846;240;1023;-53
2020/12/21 10:03:35;;;;;;;;;;;18.60;40.30;;;;;;490983;240;1011;-53
2020/12/21 10:05:36;;;;;;;;;;;18.70;40.30;;;;;;491162;240;1087;-53
2020/12/21 10:07:38;;;;;;;;;;;18.70;40.30;;;;;;491041;240;2196;-53
2020/12/21 10:09:39;;;;;;;;;;;18.70;40.30;;;;;;490984;240;1065;-53
2020/12/21 10:11:40;;;;;;;;;;;18.60;40.30;;;;;;491147;240;1088;-53
2020/12/21 10:13:42;;;;;;;;;;;18.60;40.30;;;;;;491095;240;1274;-53
2020/12/21 10:15:43;;;;;;;;;;;18.70;40.30;;;;;;490996;240;1013;-53
2020/12/21 10:17:44;;;;;;;;;;;18.70;40.30;;;;;;491168;240;1067;-53
2020/12/21 10:19:45;;;;;;;;;;;18.60;40.30;;;;;;491258;240;1097;-53
2020/12/21 10:21:47;;;;;;;;;;;18.60;40.30;;;;;;491218;240;1101;-53
2020/12/21 10:23:48;;;;;;;;;;;18.60;40.30;;;;;;491201;240;1016;-53
2020/12/21 10:25:49;;;;;;;;;;;18.60;40.30;;;;;;491274;240;1062;-53
2020/12/21 10:27:51;;;;;;;;;;;18.60;40.30;;;;;;491184;240;2196;-53
2020/12/21 10:29:52;;;;;;;;;;;18.60;40.30;;;;;;491124;240;2224;-53
2020/12/21 10:31:53;;;;;;;;;;;18.60;40.20;;;;;;491070;240;1169;-53
2020/12/21 10:33:54;;;;;;;;;;;18.60;40.30;;;;;;491199;240;1121;-53
2020/12/21 10:35:56;;;;;;;;;;;18.60;40.20;;;;;;491147;240;1117;-53
2020/12/21 10:37:57;;;;;;;;;;;18.60;40.20;;;;;;491108;240;1070;-53
2020/12/21 10:39:58;;;;;;;;;;;18.60;40.20;;;;;;491364;240;1185;-53
2020/12/21 10:42:00;;;;;;;;;;;18.60;40.30;;;;;;491227;240;1145;-52
2020/12/21 10:44:01;;;;;;;;;;;18.60;40.20;;;;;;491263;240;1120;-53
2020/12/21 10:46:02;;;;;;;;;;;18.60;38.90;;;;;;491137;240;1217;-53
2020/12/21 10:48:04;;;;;;;;;;;18.60;40.30;;;;;;491144;240;2185;-53
2020/12/21 10:50:05;;;;;;;;;;;18.60;40.30;;;;;;491094;240;1038;-53
2020/12/21 10:52:06;;;;;;;;;;;18.60;40.20;;;;;;491200;240;1203;-53
2020/12/21 10:54:08;;;;;;;;;;;18.60;40.20;;;;;;491286;240;1066;-53
2020/12/21 10:56:09;;;;;;;;;;;18.60;40.20;;;;;;491150;240;1349;-53
2020/12/21 10:58:10;;;;;;;;;;;18.60;40.30;;;;;;491241;240;1199;-53
2020/12/21 11:00:12;;;;;;;;;;;18.60;38.90;;;;;;491256;240;1163;-52
2020/12/21 11:02:13;;;;;;;;;;;18.60;40.30;;;;;;491103;240;1214;-53
2020/12/21 11:04:14;;;;;;;;;;;18.60;40.30;;;;;;491212;240;1019;-53
2020/12/21 11:06:15;;;;;;;;;;;18.60;40.30;;;;;;491084;240;1291;-53
2020/12/21 11:08:17;;;;;;;;;;;18.60;40.30;;;;;;491041;240;2172;-53
2020/12/21 11:10:18;;;;;;;;;;;18.60;40.30;;;;;;491001;240;1391;-53
2020/12/21 11:12:22;;;;;;;;;;;18.60;40.30;;;;;;490936;240;1148;-53
2020/12/21 11:14:20;;;;;;;;;;;18.60;40.30;;;;;;491112;241;2231;-53
2020/12/21 11:16:22;;;;;;;;;;;18.60;40.20;;;;;;491119;240;1059;-53
2020/12/21 11:18:23;;;;;;;;;;;18.60;40.30;;;;;;491165;240;1040;-53
2020/12/21 11:20:24;;;;;;;;;;;18.60;40.20;;;;;;491202;240;1080;-53
2020/12/21 11:22:26;;;;;;;;;;;18.70;40.30;;;;;;491183;240;954;-53
2020/12/21 11:24:28;;;;;;;;;;;18.60;40.20;;;;;;491163;240;1153;-53
2020/12/21 11:26:29;;;;;;;;;;;18.70;40.30;;;;;;490990;240;1028;-52
2020/12/21 11:28:30;;;;;;;;;;;18.70;40.30;;;;;;491110;240;2141;-53
2020/12/21 11:30:32;;;;;;;;;;;18.70;40.30;;;;;;490936;240;1140;-53
2020/12/21 11:32:37;;;;;;;;;;;18.70;40.30;;;;;;491073;240;1051;-53
2020/12/21 11:34:35;;;;;;;;;;;18.70;40.30;;;;;;491090;241;1892;-53
2020/12/21 11:36:36;;;;;;;;;;;18.70;40.30;;;;;;491266;240;1051;-53
2020/12/21 11:38:37;;;;;;;;;;;18.70;40.20;;;;;;491222;240;1040;-53
2020/12/21 11:40:39;;;;;;;;;;;18.70;40.30;;;;;;491216;240;1077;-53
2020/12/21 11:42:40;;;;;;;;;;;18.70;38.90;;;;;;490975;240;1052;-53
2020/12/21 11:44:41;;;;;;;;;;;18.70;40.20;;;;;;491057;240;1176;-53
2020/12/21 11:46:43;;;;;;;;;;;18.70;40.20;;;;;;491012;240;1000;-53
2020/12/21 11:48:44;;;;;;;;;;;18.70;40.20;;;;;;491106;240;2181;-53
2020/12/21 11:50:45;;;;;;;;;;;18.70;40.10;;;;;;491233;240;999;-53
2020/12/21 11:52:47;;;;;;;;;;;18.70;40.10;;;;;;491308;240;1110;-53
2020/12/21 11:54:48;;;;;;;;;;;18.70;40.10;;;;;;491280;240;2141;-52
2020/12/21 11:56:49;;;;;;;;;;;18.70;40.10;;;;;;491289;240;1048;-52